createdAt,value
2023-01-12T12:18:08.744Z,92.80
2023-01-12T12:25:41.855Z,92.40
2023-01-12T12:28:16.440Z,92.60
2023-01-12T12:31:01.732Z,92.80
2023-01-12T12:33:51.658Z,97.10
2023-01-12T12:36:33.750Z,93.20
2023-01-12T12:39:24.192Z,93.10
2023-01-12T13:26:39.260Z,94.10
2023-01-12T13:29:25.979Z,94.30
2023-01-12T13:31:59.194Z,94.70
2023-01-12T13:34:46.068Z,95.50
2023-01-12T13:37:23.178Z,94.40
2023-01-12T13:40:01.851Z,95.00
2023-01-12T13:42:48.546Z,95.20
2023-01-12T13:45:19.862Z,95.20
2023-01-12T13:47:48.491Z,94.50
2023-01-12T13:50:19.032Z,96.70
2023-01-12T13:52:57.943Z,99.90
2023-01-12T13:55:28.378Z,99.90
2023-01-12T13:57:58.933Z,99.90
2023-01-12T14:00:26.303Z,99.90
2023-01-12T14:02:53.883Z,99.90
2023-01-12T14:05:26.473Z,99.90
2023-01-12T14:08:13.129Z,99.90
2023-01-12T14:11:15.291Z,99.90
2023-01-12T14:13:46.509Z,99.90
2023-01-12T14:16:35.820Z,99.90
2023-01-12T14:19:18.743Z,99.90
2023-01-12T14:21:57.109Z,95.60
2023-01-12T14:24:25.611Z,99.90
2023-01-12T14:26:52.582Z,99.90
2023-01-12T14:29:19.414Z,99.90
2023-01-12T14:31:50.247Z,99.90
2023-01-12T14:34:24.364Z,99.90
2023-01-12T14:36:51.362Z,99.90
2023-01-12T14:39:21.854Z,99.90
2023-01-12T14:42:11.181Z,99.90
2023-01-12T14:45:08.291Z,99.90
2023-01-12T14:47:35.662Z,99.90
2023-01-12T14:50:14.749Z,99.90
2023-01-12T14:52:44.000Z,99.90
2023-01-12T14:55:17.758Z,99.90
2023-01-12T14:57:51.007Z,99.90
2023-01-12T15:00:21.877Z,99.90
2023-01-12T15:02:52.145Z,99.90
2023-01-12T15:05:25.533Z,99.90
2023-01-12T15:08:00.712Z,99.90
2023-01-12T15:10:37.623Z,99.90
2023-01-12T15:13:28.470Z,99.90
2023-01-12T15:16:17.001Z,99.90
2023-01-12T15:19:04.017Z,99.90
2023-01-12T15:21:52.557Z,99.90
2023-01-12T15:24:55.065Z,97.30
2023-01-12T15:27:23.264Z,99.90
2023-01-12T15:29:50.019Z,99.90
2023-01-12T15:32:23.778Z,99.90
2023-01-12T15:34:50.939Z,99.90
2023-01-12T15:37:19.181Z,99.90
2023-01-12T15:39:46.594Z,99.90
2023-01-12T15:42:16.113Z,99.90
2023-01-12T15:44:47.676Z,96.50
2023-01-12T15:47:15.707Z,99.90
2023-01-12T15:49:47.059Z,96.40
2023-01-12T15:52:21.257Z,96.20
2023-01-12T15:54:48.137Z,96.50
2023-01-12T15:57:15.747Z,96.80
2023-01-12T15:59:42.751Z,96.80
2023-01-12T16:02:24.514Z,97.10
2023-01-12T16:04:52.049Z,96.80
2023-01-12T16:07:18.901Z,97.30
2023-01-12T16:09:47.817Z,96.90
2023-01-12T16:12:15.247Z,97.00
2023-01-12T16:14:41.968Z,97.70
2023-01-12T16:17:08.801Z,97.50
2023-01-12T16:19:41.129Z,97.80
2023-01-12T16:22:21.972Z,98.20
2023-01-12T16:24:50.210Z,97.70
2023-01-12T16:27:18.423Z,97.30
2023-01-12T16:29:45.632Z,97.60
2023-01-12T16:32:12.904Z,97.70
2023-01-12T16:34:40.347Z,97.40
2023-01-12T16:37:12.460Z,97.70
2023-01-12T16:39:39.425Z,97.80
2023-01-12T16:42:06.278Z,96.90
2023-01-12T16:44:37.837Z,97.30
2023-01-12T16:47:06.637Z,97.60
2023-01-12T16:49:36.170Z,97.60
2023-01-12T16:52:04.160Z,98.60
2023-01-12T16:54:30.949Z,98.10
2023-01-12T16:56:58.843Z,98.50
2023-01-12T16:59:28.356Z,98.50
2023-01-12T17:01:55.402Z,98.20
2023-01-12T17:04:22.285Z,97.90
2023-01-12T17:06:49.461Z,97.90
2023-01-12T17:09:16.493Z,98.70
2023-01-12T17:11:43.849Z,98.00
2023-01-12T17:14:28.322Z,98.20
2023-01-12T17:16:57.685Z,98.00
2023-01-12T17:19:27.028Z,97.80
2023-01-12T17:21:54.879Z,97.40
2023-01-12T17:29:22.596Z,99.90
2023-01-12T17:36:53.151Z,99.90
2023-01-12T23:01:20.268Z,99.90
2023-01-12T23:03:48.439Z,99.90
2023-01-12T23:36:02.324Z,95.10
2023-01-12T23:38:29.047Z,95.70
2023-01-12T23:40:55.800Z,95.60
2023-01-12T23:43:22.630Z,95.00
2023-01-12T23:53:10.880Z,95.30
2023-01-12T23:55:39.181Z,95.40
2023-01-12T23:58:06.432Z,96.00
